createdAt,value
2023-01-04T00:01:10.893Z,23.00
2023-01-04T00:06:31.654Z,23.17
2023-01-04T00:11:52.795Z,16.13
2023-01-04T00:17:13.179Z,26.40
2023-01-04T00:22:34.662Z,14.45
2023-01-04T00:27:55.032Z,23.90
2023-01-04T00:33:15.902Z,20.42
2023-01-04T00:38:37.250Z,28.02
2023-01-04T00:43:59.776Z,28.10
2023-01-04T00:49:20.470Z,21.50
2023-01-04T00:54:41.311Z,15.00
2023-01-04T01:00:02.007Z,22.15
2023-01-04T01:05:23.079Z,9.25
2023-01-04T01:10:43.737Z,19.80
2023-01-04T01:16:09.531Z,18.38
2023-01-04T01:21:32.189Z,19.00
2023-01-04T01:26:52.704Z,20.42
2023-01-04T01:32:13.202Z,17.27
2023-01-04T01:37:33.960Z,22.20
2023-01-04T01:42:55.143Z,13.45
2023-01-04T01:48:22.896Z,18.48
2023-01-04T01:53:47.166Z,12.15
2023-01-04T01:59:11.141Z,22.88
2023-01-04T02:04:32.831Z,8.30
2023-01-04T02:09:54.972Z,11.10
2023-01-04T02:15:15.808Z,11.48
2023-01-04T02:20:48.714Z,17.80
2023-01-04T02:26:40.246Z,8.35
2023-01-04T02:32:05.176Z,18.38
2023-01-04T02:37:34.632Z,20.88
2023-01-04T02:43:21.739Z,23.48
2023-01-04T02:49:01.282Z,22.90
2023-01-04T02:54:25.253Z,17.70
2023-01-04T03:00:04.391Z,13.90
2023-01-04T03:06:02.216Z,7.43
2023-01-04T03:11:46.801Z,16.55
2023-01-04T03:17:13.217Z,16.17
2023-01-04T03:23:19.580Z,12.50
2023-01-04T03:29:00.229Z,32.03
2023-01-04T03:34:39.935Z,24.05
2023-01-04T03:40:47.170Z,22.33
2023-01-04T03:46:51.227Z,32.35
2023-01-04T03:52:14.401Z,21.90
2023-01-04T03:57:36.342Z,19.88
2023-01-04T04:03:07.368Z,13.23
2023-01-04T04:08:31.439Z,11.05
2023-01-04T04:13:52.455Z,11.73
2023-01-04T04:19:12.973Z,7.65
2023-01-04T04:24:33.586Z,17.23
2023-01-04T04:29:54.319Z,12.60
2023-01-04T04:35:15.173Z,10.38
2023-01-04T04:40:57.344Z,11.82
2023-01-04T04:46:17.780Z,24.38
2023-01-04T04:51:38.574Z,18.70
2023-01-04T04:56:59.201Z,13.02
2023-01-04T05:02:19.822Z,20.50
2023-01-04T05:07:40.554Z,33.35
2023-01-04T05:13:01.709Z,18.52
2023-01-04T05:18:22.977Z,14.35
2023-01-04T05:23:43.556Z,21.25
2023-01-04T05:29:04.500Z,27.05
2023-01-04T05:34:24.923Z,9.65
2023-01-04T05:39:45.654Z,7.00
2023-01-04T05:45:07.456Z,16.42
2023-01-04T05:50:28.033Z,5.38
2023-01-04T05:55:49.384Z,18.60
2023-01-04T06:01:09.752Z,22.15
2023-01-04T06:06:30.505Z,26.45
2023-01-04T06:11:51.344Z,16.90
2023-01-04T06:17:12.508Z,9.73
2023-01-04T06:22:33.448Z,9.93
2023-01-04T06:27:54.105Z,13.68
2023-01-04T06:33:14.717Z,16.30
2023-01-04T06:38:35.380Z,20.23
2023-01-04T06:43:56.077Z,16.38
2023-01-04T06:49:16.882Z,11.50
2023-01-04T06:54:37.308Z,15.32
2023-01-04T06:59:58.232Z,15.27
2023-01-04T07:05:19.273Z,14.75
2023-01-04T07:10:40.295Z,16.25
2023-01-04T07:16:01.208Z,17.75
2023-01-04T07:21:21.889Z,15.68
2023-01-04T07:26:42.492Z,19.25
2023-01-04T07:32:04.957Z,24.15
2023-01-04T07:37:28.211Z,19.85
2023-01-04T07:42:57.568Z,28.65
2023-01-04T07:48:18.136Z,38.30
2023-01-04T07:53:38.727Z,25.10
2023-01-04T07:58:59.574Z,41.78
2023-01-04T08:04:25.275Z,34.75
2023-01-04T08:09:49.116Z,29.90
2023-01-04T08:15:09.747Z,29.23
2023-01-04T08:20:30.505Z,47.53
2023-01-04T08:25:50.883Z,29.65
2023-01-04T08:31:17.479Z,23.45
2023-01-04T08:36:50.375Z,41.20
2023-01-04T08:42:21.970Z,58.55
2023-01-04T08:47:45.415Z,44.00
2023-01-04T08:53:07.178Z,48.13
2023-01-04T08:58:29.456Z,44.17
2023-01-04T09:03:49.954Z,46.90
2023-01-04T09:09:11.082Z,54.53
2023-01-04T09:14:31.761Z,36.40
2023-01-04T09:19:52.322Z,47.42
2023-01-04T09:25:13.830Z,51.60
2023-01-04T09:30:35.368Z,60.28
2023-01-04T09:35:56.200Z,57.33
2023-01-04T09:41:30.370Z,59.78
2023-01-04T09:46:58.586Z,52.13
2023-01-04T09:52:44.375Z,44.25
2023-01-04T09:58:31.311Z,51.58
2023-01-04T10:03:59.925Z,47.55
2023-01-04T10:09:21.117Z,47.67
2023-01-04T10:14:55.553Z,65.80
2023-01-04T10:21:20.769Z,61.53
2023-01-04T10:26:19.782Z,39.20
2023-01-04T10:37:13.951Z,53.33
2023-01-04T10:42:42.177Z,44.65
2023-01-04T10:48:18.790Z,34.10
2023-01-04T10:53:48.844Z,45.53
2023-01-04T10:59:26.242Z,55.72
2023-01-04T11:05:05.150Z,55.85
2023-01-04T11:10:34.654Z,41.03
2023-01-04T11:15:55.440Z,47.92
2023-01-04T11:21:22.110Z,43.20
2023-01-04T11:26:45.539Z,43.63
2023-01-04T11:32:17.264Z,63.58
2023-01-04T11:37:40.302Z,68.75
2023-01-04T11:43:19.058Z,41.35
2023-01-04T11:48:42.690Z,38.78
2023-01-04T11:54:23.512Z,52.97
2023-01-04T11:59:44.106Z,38.90
2023-01-04T12:05:21.155Z,52.20
2023-01-04T12:10:44.642Z,42.75
2023-01-04T12:16:47.765Z,51.33
2023-01-04T12:22:40.124Z,59.72
2023-01-04T12:28:01.005Z,48.88
2023-01-04T12:33:30.573Z,48.05
2023-01-04T12:39:29.029Z,61.20
2023-01-04T12:44:52.253Z,41.75
2023-01-04T12:50:16.879Z,56.38
2023-01-04T13:01:05.163Z,52.03
2023-01-04T13:14:36.260Z,35.10
2023-01-04T13:19:57.202Z,45.42
2023-01-04T13:25:20.156Z,59.92
2023-01-04T13:30:40.854Z,47.42
2023-01-04T13:36:04.371Z,46.17
2023-01-04T13:41:25.407Z,35.47
2023-01-04T13:46:45.659Z,54.22
2023-01-04T13:52:50.583Z,46.28
2023-01-04T13:58:17.740Z,51.40
2023-01-04T14:03:43.062Z,50.65
2023-01-04T14:09:16.728Z,47.90
2023-01-04T14:15:23.348Z,53.15
2023-01-04T14:20:44.205Z,51.63
2023-01-04T14:26:04.742Z,44.83
2023-01-04T14:31:32.768Z,45.53
2023-01-04T14:37:04.037Z,47.25
2023-01-04T14:42:26.891Z,49.05
2023-01-04T14:47:47.514Z,36.42
2023-01-04T14:53:09.466Z,35.90
2023-01-04T14:58:30.007Z,29.85
2023-01-04T15:03:50.601Z,41.65
2023-01-04T15:09:11.261Z,34.53
2023-01-04T15:14:32.155Z,48.65
2023-01-04T15:19:52.483Z,51.67
2023-01-04T15:25:13.652Z,50.25
2023-01-04T15:30:34.592Z,67.28
2023-01-04T15:36:04.007Z,50.65
2023-01-04T15:41:43.141Z,36.72
2023-01-04T15:47:03.589Z,26.83
2023-01-04T15:52:24.145Z,34.78
2023-01-04T15:57:45.113Z,42.83
2023-01-04T16:03:05.682Z,45.85
2023-01-04T16:08:25.990Z,60.08
2023-01-04T16:13:48.758Z,53.42
2023-01-04T16:19:09.473Z,44.35
2023-01-04T16:25:08.880Z,49.15
2023-01-04T16:30:14.020Z,37.10
2023-01-04T16:35:34.387Z,66.80
2023-01-04T16:41:02.149Z,39.15
2023-01-04T16:46:28.501Z,28.80
2023-01-04T16:51:48.827Z,37.97
2023-01-04T16:57:10.401Z,39.75
2023-01-04T17:02:31.235Z,49.10
2023-01-04T17:07:52.667Z,39.97
2023-01-04T17:13:13.048Z,28.80
2023-01-04T17:18:34.838Z,50.38
2023-01-04T17:23:57.037Z,27.13
2023-01-04T17:29:17.529Z,34.63
2023-01-04T17:34:38.198Z,39.58
2023-01-04T17:39:58.967Z,29.02
2023-01-04T17:50:40.712Z,35.40
2023-01-04T17:56:05.896Z,33.15
2023-01-04T18:01:27.233Z,51.90
2023-01-04T18:06:47.681Z,34.70
2023-01-04T18:12:08.891Z,33.40
2023-01-04T18:17:29.568Z,37.78
2023-01-04T18:22:50.221Z,25.17
2023-01-04T18:28:10.725Z,24.73
2023-01-04T18:33:31.074Z,20.38
2023-01-04T18:38:55.272Z,28.63
2023-01-04T18:44:32.796Z,34.38
2023-01-04T18:49:54.954Z,44.00
2023-01-04T18:55:16.762Z,26.48
2023-01-04T19:00:37.006Z,43.75
2023-01-04T19:05:57.675Z,51.60
2023-01-04T19:11:18.472Z,28.90
2023-01-04T19:16:39.752Z,32.97
2023-01-04T19:22:00.737Z,46.53
2023-01-04T19:27:22.078Z,35.75
2023-01-04T19:32:42.762Z,39.30
2023-01-04T19:38:03.562Z,38.78
2023-01-04T19:43:24.167Z,26.33
2023-01-04T19:48:45.142Z,27.83
2023-01-04T19:54:05.786Z,25.67
2023-01-04T19:59:26.572Z,45.10
2023-01-04T20:04:47.257Z,40.15
2023-01-04T20:10:13.944Z,36.50
2023-01-04T20:15:38.991Z,48.05
2023-01-04T20:20:59.685Z,39.95
2023-01-04T20:26:20.326Z,36.72
2023-01-04T20:31:45.613Z,26.63
2023-01-04T20:37:06.225Z,34.05
2023-01-04T20:42:45.485Z,50.03
2023-01-04T20:48:06.519Z,35.80
2023-01-04T20:53:27.001Z,42.20
2023-01-04T20:58:48.655Z,36.75
2023-01-04T21:04:09.454Z,26.55
2023-01-04T21:09:30.235Z,38.70
2023-01-04T21:14:50.798Z,30.13
2023-01-04T21:20:11.606Z,21.95
2023-01-04T21:25:32.263Z,46.70
2023-01-04T21:30:52.900Z,22.63
2023-01-04T21:36:19.497Z,23.55
2023-01-04T21:41:47.499Z,26.23
2023-01-04T21:47:08.605Z,20.55
2023-01-04T21:52:29.235Z,24.13
2023-01-04T21:57:50.160Z,27.50
2023-01-04T22:03:11.729Z,19.63
2023-01-04T22:08:32.886Z,19.83
2023-01-04T22:13:53.242Z,23.25
2023-01-04T22:19:14.938Z,35.35
2023-01-04T22:24:38.115Z,21.27
2023-01-04T22:29:59.026Z,29.08
2023-01-04T22:35:19.688Z,21.48
2023-01-04T22:40:41.304Z,21.52
2023-01-04T22:46:04.209Z,30.05
2023-01-04T22:51:27.517Z,38.40
2023-01-04T22:56:48.376Z,20.67
2023-01-04T23:02:09.126Z,19.73
2023-01-04T23:07:29.596Z,12.25
2023-01-04T23:12:51.195Z,11.73
2023-01-04T23:18:11.543Z,22.23
2023-01-04T23:23:33.311Z,26.95
2023-01-04T23:28:54.143Z,9.27
2023-01-04T23:34:15.025Z,25.92
2023-01-04T23:39:35.510Z,21.23
2023-01-04T23:44:56.163Z,13.27
2023-01-04T23:50:17.174Z,12.80
2023-01-04T23:55:37.770Z,7.65
